Time;durP1;ratioP1;P1;durP2;ratioP2;P2;SDS_P1;SDS_P2;PMS_P1;PMS_P2;Temp;Humidity;BMP_temperature;BMP_pressure;BME280_temperature;BME280_humidity;BME280_pressure;Samples;Min_cycle;Max_cycle;Signal;HPM_P1;HPM_P2
2023/06/14 00:00:20;;;;;;;9.70;5.45;;;19.20;47.20;;;;;;5056396;28;20032;-59
2023/06/14 00:02:46;;;;;;;10.57;5.90;;;19.10;99.90;;;;;;5059496;28;20083;-58
2023/06/14 00:05:12;;;;;;;10.73;5.70;;;19.30;99.90;;;;;;5058429;28;20040;-59
2023/06/14 00:07:43;;;;;;;13.48;6.00;;;19.30;99.90;;;;;;5064545;28;20036;-59
2023/06/14 00:10:12;;;;;;;10.57;5.63;;;19.40;99.90;;;;;;5058119;28;20091;-59
2023/06/14 00:12:38;;;;;;;10.30;5.82;;;19.40;99.90;;;;;;5055425;28;20044;-59
2023/06/14 00:15:05;;;;;;;12.05;6.28;;;19.00;99.90;;;;;;5057941;28;20496;-59
2023/06/14 00:17:31;;;;;;;10.57;6.18;;;19.00;1.00;;;;;;5061416;28;21262;-59
2023/06/14 00:20:00;;;;;;;9.05;5.40;;;18.80;1.00;;;;;;5054920;28;20064;-60
2023/06/14 00:22:28;;;;;;;11.77;5.82;;;18.50;99.90;;;;;;5059454;28;20035;-59
2023/06/14 00:24:54;;;;;;;9.85;6.20;;;18.30;1.00;;;;;;5056165;28;20035;-59
2023/06/14 00:27:20;;;;;;;8.80;5.88;;;18.70;99.90;;;;;;5060113;28;20526;-59
2023/06/14 00:29:45;;;;;;;8.30;5.90;;;18.50;99.90;;;;;;5059523;28;20032;-59
2023/06/14 00:32:11;;;;;;;9.02;5.50;;;18.60;99.90;;;;;;5065319;28;20044;-59
2023/06/14 00:34:36;;;;;;;8.63;6.03;;;18.00;1.00;;;;;;5053759;28;20039;-59
2023/06/14 00:37:02;;;;;;;11.18;6.10;;;18.00;1.00;;;;;;5049748;28;20068;-59
2023/06/14 00:39:28;;;;;;;12.23;6.30;;;17.90;99.90;;;;;;5047333;28;20166;-59
2023/06/14 00:41:53;;;;;;;8.88;6.10;;;17.90;1.00;;;;;;5056288;28;20044;-59
2023/06/14 00:44:19;;;;;;;9.30;6.15;;;17.70;99.90;;;;;;5047914;28;20040;-59
2023/06/14 00:46:46;;;;;;;10.18;6.15;;;17.70;99.90;;;;;;5064410;28;20032;-59
2023/06/14 00:49:14;;;;;;;13.07;6.10;;;17.60;99.90;;;;;;5056083;28;20040;-59
2023/06/14 00:51:41;;;;;;;11.82;6.15;;;17.60;99.90;;;;;;5057415;28;20072;-59
2023/06/14 00:54:06;;;;;;;10.00;6.20;;;17.60;99.90;;;;;;5046851;28;20052;-59
2023/06/14 00:56:32;;;;;;;8.05;6.00;;;17.60;99.90;;;;;;5049522;28;20045;-60
2023/06/14 00:58:58;;;;;;;10.30;6.22;;;17.50;99.90;;;;;;5054017;28;20037;-59
2023/06/14 01:01:24;;;;;;;10.25;6.13;;;17.40;99.90;;;;;;5049102;28;20407;-59
2023/06/14 01:03:51;;;;;;;10.85;6.18;;;17.20;99.90;;;;;;5052990;28;20039;-59
2023/06/14 01:06:35;;;;;;;7.93;6.25;;;17.30;99.90;;;;;;5049322;28;20481;-59
2023/06/14 01:09:11;;;;;;;12.00;6.40;;;17.10;99.90;;;;;;5048529;28;20392;-59
2023/06/14 01:12:04;;;;;;;9.77;5.40;;;17.50;99.90;;;;;;5058104;28;20041;-59
2023/06/14 01:14:32;;;;;;;10.03;6.20;;;17.70;99.90;;;;;;5047888;28;20032;-59
2023/06/14 01:17:00;;;;;;;8.55;5.53;;;17.90;99.90;;;;;;5064717;28;20650;-60
2023/06/14 01:19:28;;;;;;;7.80;5.80;;;17.90;99.90;;;;;;5068312;28;20040;-59
2023/06/14 01:21:55;;;;;;;8.45;6.07;;;18.00;99.90;;;;;;5071504;28;20177;-59
2023/06/14 01:24:25;;;;;;;13.80;6.32;;;18.00;99.90;;;;;;5067000;28;20255;-59
2023/06/14 01:26:55;;;;;;;8.48;6.00;;;18.00;99.90;;;;;;5067023;28;20041;-59
2023/06/14 01:29:23;;;;;;;14.70;6.75;;;18.00;99.90;;;;;;5066084;28;20043;-59
2023/06/14 01:31:50;;;;;;;11.60;6.70;;;18.00;99.90;;;;;;5066762;28;20032;-59
2023/06/14 01:34:16;;;;;;;9.05;5.72;;;18.10;99.90;;;;;;5067977;28;20093;-59
2023/06/14 01:36:43;;;;;;;8.82;5.90;;;18.00;99.90;;;;;;5067315;28;20488;-59
2023/06/14 01:39:13;;;;;;;11.95;6.03;;;18.00;99.90;;;;;;5066811;28;20056;-59
2023/06/14 01:41:40;;;;;;;11.50;6.47;;;18.00;99.90;;;;;;5064987;28;20035;-59
2023/06/14 01:44:06;;;;;;;17.35;6.32;;;18.10;99.90;;;;;;5065907;28;20036;-59
2023/06/14 01:46:32;;;;;;;10.32;6.07;;;18.10;99.90;;;;;;5068082;28;20040;-59
2023/06/14 01:48:58;;;;;;;8.88;5.63;;;18.10;99.90;;;;;;5068156;28;20032;-59
2023/06/14 01:51:24;;;;;;;9.77;5.95;;;18.20;99.90;;;;;;5066553;28;20028;-59
2023/06/14 01:53:50;;;;;;;7.78;5.45;;;18.20;99.90;;;;;;5068597;28;20062;-59
2023/06/14 01:56:16;;;;;;;7.40;5.63;;;18.40;99.90;;;;;;5066855;28;20455;-59
2023/06/14 01:58:41;;;;;;;8.10;5.95;;;18.60;99.90;;;;;;5068361;28;20028;-59
2023/06/14 02:01:07;;;;;;;10.95;5.60;;;18.60;99.90;;;;;;5067640;28;20048;-59
2023/06/14 02:03:34;;;;;;;9.15;5.50;;;18.50;99.90;;;;;;5070037;28;20428;-59
2023/06/14 02:05:59;;;;;;;11.13;5.40;;;18.40;99.90;;;;;;5068226;28;20036;-59
2023/06/14 02:08:25;;;;;;;8.65;5.10;;;18.40;99.90;;;;;;5067306;28;20550;-59
2023/06/14 02:10:51;;;;;;;7.20;5.60;;;18.30;99.90;;;;;;5066527;28;20052;-59
2023/06/14 02:13:17;;;;;;;7.65;5.15;;;18.20;99.90;;;;;;5067893;28;20083;-58
2023/06/14 02:15:43;;;;;;;9.95;5.03;;;18.30;99.90;;;;;;5062007;28;20336;-59
2023/06/14 02:18:09;;;;;;;9.27;5.93;;;18.20;99.90;;;;;;5054964;28;20534;-59
2023/06/14 02:20:35;;;;;;;9.05;5.38;;;18.20;99.90;;;;;;5060036;28;20041;-59
2023/06/14 02:23:01;;;;;;;9.93;5.00;;;18.30;99.90;;;;;;5066452;28;20032;-59
2023/06/14 02:25:30;;;;;;;8.20;5.03;;;18.30;99.90;;;;;;5063623;28;20561;-59
2023/06/14 02:27:56;;;;;;;7.60;5.22;;;18.10;99.90;;;;;;5066959;28;20488;-59
2023/06/14 02:30:21;;;;;;;6.68;4.88;;;18.00;99.90;;;;;;5066567;28;20037;-59
2023/06/14 02:32:48;;;;;;;8.27;5.22;;;17.90;99.90;;;;;;5069419;28;20099;-59
2023/06/14 02:35:14;;;;;;;6.55;5.15;;;17.70;99.90;;;;;;5063873;28;20024;-59
2023/06/14 02:37:40;;;;;;;8.98;5.45;;;17.80;99.90;;;;;;5070780;28;20016;-59
2023/06/14 02:40:06;;;;;;;8.32;5.30;;;18.00;99.90;;;;;;5068912;28;20082;-59
2023/06/14 02:42:32;;;;;;;11.30;5.65;;;18.00;99.90;;;;;;5068697;28;20137;-59
2023/06/14 02:44:57;;;;;;;6.72;5.03;;;18.00;99.90;;;;;;5068366;28;20419;-59
2023/06/14 02:47:24;;;;;;;5.72;5.10;;;18.00;99.90;;;;;;5068142;28;20032;-59
2023/06/14 02:49:50;;;;;;;7.55;4.85;;;17.80;99.90;;;;;;5067614;28;20120;-58
2023/06/14 02:52:15;;;;;;;8.73;5.35;;;17.70;99.90;;;;;;5068277;28;20048;-59
2023/06/14 02:54:41;;;;;;;11.45;4.93;;;17.70;99.90;;;;;;5066626;28;20456;-59
2023/06/14 02:57:07;;;;;;;8.13;5.20;;;17.80;99.90;;;;;;5070055;28;20025;-59
2023/06/14 02:59:34;;;;;;;8.77;5.00;;;17.60;99.90;;;;;;5062953;28;20498;-59
2023/06/14 03:01:59;;;;;;;9.52;4.97;;;17.50;99.90;;;;;;5067170;28;20091;-60
2023/06/14 03:04:25;;;;;;;12.30;5.63;;;17.40;99.90;;;;;;5065801;28;20039;-59
2023/06/14 03:06:53;;;;;;;7.38;5.40;;;17.40;99.90;;;;;;5071648;28;20036;-59
2023/06/14 03:09:19;;;;;;;9.05;5.60;;;17.50;99.90;;;;;;5068296;28;20480;-59
2023/06/14 03:11:45;;;;;;;10.10;5.72;;;18.20;99.90;;;;;;5070339;28;20028;-59
2023/06/14 03:14:11;;;;;;;13.50;5.40;;;17.20;99.90;;;;;;5061216;28;20048;-60
2023/06/14 03:16:37;;;;;;;11.85;5.53;;;17.20;99.90;;;;;;5060949;28;20097;-59
2023/06/14 03:19:02;;;;;;;9.35;5.75;;;17.00;99.90;;;;;;5063906;28;20037;-59
2023/06/14 03:21:28;;;;;;;11.23;6.05;;;16.90;99.90;;;;;;5064499;28;20067;-58
2023/06/14 03:23:54;;;;;;;9.93;5.85;;;16.90;99.90;;;;;;5064967;28;20097;-59
2023/06/14 03:26:19;;;;;;;11.63;6.07;;;16.70;99.90;;;;;;5067235;28;20433;-59
2023/06/14 03:28:46;;;;;;;9.38;6.35;;;16.50;99.90;;;;;;5063904;28;20041;-60
2023/06/14 03:31:12;;;;;;;11.32;6.00;;;16.60;99.90;;;;;;5062299;28;20048;-60
2023/06/14 03:33:38;;;;;;;11.07;6.38;;;16.50;99.90;;;;;;5062566;28;20052;-60
2023/06/14 03:36:04;;;;;;;12.43;6.60;;;16.50;99.90;;;;;;5064821;28;20671;-59
2023/06/14 03:38:30;;;;;;;10.82;6.20;;;16.40;99.90;;;;;;5063107;28;20481;-60
2023/06/14 03:40:56;;;;;;;7.95;5.82;;;16.40;99.90;;;;;;5063944;28;20093;-60
2023/06/14 03:43:22;;;;;;;9.15;5.85;;;16.30;99.90;;;;;;5063927;28;20503;-60
2023/06/14 03:45:47;;;;;;;7.60;5.90;;;16.30;99.90;;;;;;5061103;28;20036;-60
2023/06/14 03:48:13;;;;;;;10.82;5.95;;;16.30;99.90;;;;;;5062159;28;20135;-59
2023/06/14 03:50:39;;;;;;;11.15;5.95;;;16.30;99.90;;;;;;5058041;28;20039;-59
2023/06/14 03:53:05;;;;;;;8.55;5.90;;;16.40;99.90;;;;;;5063257;28;20068;-59
2023/06/14 03:55:33;;;;;;;8.20;6.03;;;16.10;1.00;;;;;;5062957;28;20036;-59
2023/06/14 03:57:59;;;;;;;9.05;5.65;;;16.20;99.90;;;;;;5063133;28;20476;-59
2023/06/14 04:00:25;;;;;;;9.15;5.43;;;16.30;99.90;;;;;;5065438;28;20035;-59
2023/06/14 04:02:50;;;;;;;8.80;6.00;;;16.30;99.90;;;;;;5066488;28;20124;-59
2023/06/14 04:05:18;;;;;;;7.82;5.65;;;16.30;99.90;;;;;;5064292;28;20032;-59
2023/06/14 04:07:45;;;;;;;11.77;5.45;;;16.10;99.90;;;;;;5059444;28;20040;-59
2023/06/14 04:10:12;;;;;;;9.57;5.45;;;16.40;99.90;;;;;;5061224;28;20076;-59
2023/06/14 04:12:38;;;;;;;7.32;5.28;;;16.70;99.90;;;;;;5065448;28;20135;-58
2023/06/14 04:15:05;;;;;;;7.05;5.50;;;16.80;99.90;;;;;;5065697;28;20123;-59
2023/06/14 04:17:32;;;;;;;6.80;4.70;;;16.70;99.90;;;;;;5063473;28;20029;-59
2023/06/14 04:20:03;;;;;;;8.55;5.05;;;16.70;99.90;;;;;;5064144;28;20060;-59
2023/06/14 04:22:28;;;;;;;5.55;4.95;;;16.60;99.90;;;;;;5060533;28;20034;-59
2023/06/14 04:24:57;;;;;;;8.65;4.95;;;16.80;99.90;;;;;;5050473;28;20385;-58
2023/06/14 04:27:25;;;;;;;8.77;4.90;;;16.90;99.90;;;;;;5059506;28;20435;-58
2023/06/14 04:29:56;;;;;;;10.20;4.78;;;17.10;99.90;;;;;;5065150;28;20438;-58
2023/06/14 04:32:33;;;;;;;6.68;4.90;;;17.10;99.90;;;;;;5063043;28;20041;-59
2023/06/14 04:35:02;;;;;;;10.73;5.15;;;17.10;99.90;;;;;;5063356;28;20039;-58
2023/06/14 04:37:29;;;;;;;10.05;5.05;;;17.20;99.90;;;;;;5068371;28;20459;-58
2023/06/14 04:39:55;;;;;;;8.27;5.07;;;17.20;99.90;;;;;;5063619;28;20459;-59
2023/06/14 04:42:24;;;;;;;9.20;4.93;;;17.30;99.90;;;;;;5060101;28;20029;-59
2023/06/14 04:44:51;;;;;;;7.13;5.07;;;17.40;99.90;;;;;;5061432;28;20060;-58
2023/06/14 04:47:17;;;;;;;9.35;5.50;;;17.60;99.90;;;;;;5064703;28;20039;-59
2023/06/14 04:49:42;;;;;;;8.73;4.47;;;17.70;99.90;;;;;;5066629;28;20033;-59
2023/06/14 04:52:10;;;;;;;10.27;5.47;;;17.80;99.90;;;;;;5064779;28;20037;-58
2023/06/14 04:54:37;;;;;;;7.32;4.90;;;17.90;99.90;;;;;;5062602;28;20086;-59
2023/06/14 04:57:05;;;;;;;8.50;5.07;;;18.00;99.90;;;;;;5063328;28;20036;-58
2023/06/14 04:59:33;;;;;;;9.00;4.95;;;18.20;99.90;;;;;;5067114;28;20124;-58
2023/06/14 05:01:59;;;;;;;8.18;4.70;;;18.30;99.90;;;;;;5067739;28;20040;-58
2023/06/14 05:04:27;;;;;;;7.15;4.35;;;18.40;99.90;;;;;;5066343;28;20609;-58
2023/06/14 05:06:54;;;;;;;10.65;4.68;;;18.40;99.90;;;;;;5065332;28;20041;-57
2023/06/14 05:09:20;;;;;;;10.20;4.35;;;18.40;99.90;;;;;;5062326;28;20041;-58
2023/06/14 05:11:47;;;;;;;8.23;4.22;;;18.50;99.90;;;;;;5062812;28;20021;-58
2023/06/14 05:14:13;;;;;;;16.05;4.07;;;18.50;99.90;;;;;;5060297;28;20454;-58
2023/06/14 05:16:39;;;;;;;10.68;4.32;;;18.80;99.90;;;;;;5056173;28;20048;-58
2023/06/14 05:19:05;;;;;;;6.28;4.05;;;18.80;99.90;;;;;;5059591;28;20124;-58
2023/06/14 05:21:34;;;;;;;10.60;4.30;;;18.80;99.90;;;;;;5062286;28;20544;-58
2023/06/14 05:24:00;;;;;;;8.20;4.22;;;18.90;99.90;;;;;;5063754;28;20047;-58
2023/06/14 05:26:29;;;;;;;10.52;3.78;;;18.80;99.90;;;;;;5065120;28;20040;-57
2023/06/14 05:29:00;;;;;;;7.68;3.85;;;19.00;99.90;;;;;;5076452;28;20047;-58
2023/06/14 05:31:26;;;;;;;8.85;4.22;;;19.00;99.90;;;;;;5071818;28;20066;-58
2023/06/14 05:33:52;;;;;;;7.90;3.95;;;19.10;99.90;;;;;;5063693;28;20075;-58
2023/06/14 05:36:18;;;;;;;9.43;4.22;;;19.30;99.90;;;;;;5068854;28;20037;-58
2023/06/14 05:38:45;;;;;;;8.13;4.10;;;19.50;99.90;;;;;;5061798;28;20036;-58
2023/06/14 05:41:11;;;;;;;13.23;4.25;;;19.50;99.90;;;;;;5061456;28;20127;-58
2023/06/14 05:43:36;;;;;;;8.15;3.60;;;19.30;99.90;;;;;;5062045;28;20119;-58
2023/06/14 05:46:02;;;;;;;9.15;3.80;;;19.60;99.90;;;;;;5061635;28;20043;-58
2023/06/14 05:48:28;;;;;;;8.10;3.70;;;19.90;99.90;;;;;;5057867;28;20106;-58
2023/06/14 05:50:54;;;;;;;7.10;4.03;;;19.50;99.90;;;;;;5058884;28;20036;-58
2023/06/14 05:53:20;;;;;;;10.15;3.92;;;19.40;99.90;;;;;;5058841;28;20040;-58
2023/06/14 05:55:45;;;;;;;6.53;3.83;;;19.60;99.90;;;;;;5057698;28;20025;-58
2023/06/14 05:58:12;;;;;;;6.80;3.78;;;19.90;99.90;;;;;;5055881;28;20040;-57
2023/06/14 06:00:38;;;;;;;5.43;3.72;;;20.00;99.90;;;;;;5055215;28;20017;-57
2023/06/14 06:03:04;;;;;;;9.93;3.88;;;20.10;99.90;;;;;;5070478;28;20041;-57
2023/06/14 06:05:30;;;;;;;9.73;3.90;;;20.00;99.90;;;;;;5057418;28;20654;-57
2023/06/14 06:07:56;;;;;;;12.25;3.63;;;20.10;99.90;;;;;;5068121;28;20037;-57
2023/06/14 06:10:21;;;;;;;6.95;3.53;;;20.10;99.90;;;;;;5061906;28;20047;-57
2023/06/14 06:12:48;;;;;;;8.30;3.70;;;20.20;99.90;;;;;;5066676;28;20028;-57
2023/06/14 06:15:14;;;;;;;7.80;3.65;;;20.60;99.90;;;;;;5061700;28;20036;-57
2023/06/14 06:17:40;;;;;;;5.90;3.30;;;20.60;99.90;;;;;;5070135;28;20534;-57
2023/06/14 06:20:08;;;;;;;6.15;3.70;;;20.70;99.90;;;;;;5059381;28;20021;-57
2023/06/14 06:22:34;;;;;;;9.43;3.45;;;20.80;99.90;;;;;;5070526;28;20496;-57
2023/06/14 06:25:00;;;;;;;10.07;3.50;;;20.90;99.90;;;;;;5058615;28;20173;-57
2023/06/14 06:27:25;;;;;;;6.93;3.13;;;21.00;99.90;;;;;;5063390;28;20066;-57
2023/06/14 06:29:51;;;;;;;7.45;4.40;;;21.00;99.90;;;;;;5067831;28;20040;-57
2023/06/14 06:32:17;;;;;;;26.17;16.60;;;21.00;99.90;;;;;;5060185;28;20454;-57
2023/06/14 06:34:43;;;;;;;5.07;3.42;;;21.00;99.90;;;;;;5060546;28;20044;-57
2023/06/14 06:37:09;;;;;;;5.18;3.20;;;21.70;99.90;;;;;;5063602;28;20032;-57
2023/06/14 06:39:35;;;;;;;5.18;3.05;;;21.50;99.90;;;;;;5060966;28;20056;-58
2023/06/14 06:42:00;;;;;;;5.60;2.85;;;21.50;99.90;;;;;;5065036;28;20060;-57
2023/06/14 06:44:26;;;;;;;5.88;2.85;;;21.60;99.90;;;;;;5060788;28;20047;-57
2023/06/14 06:46:52;;;;;;;5.25;2.88;;;21.60;99.90;;;;;;5065042;28;20040;-57
2023/06/14 06:49:17;;;;;;;4.95;2.67;;;21.50;99.90;;;;;;5061266;28;20045;-57
2023/06/14 06:51:58;;;;;;;6.40;2.72;;;21.60;99.90;;;;;;5064985;28;20234;-57
2023/06/14 06:54:24;;;;;;;7.00;2.88;;;21.90;99.90;;;;;;5061283;28;20127;-57
2023/06/14 06:56:50;;;;;;;5.53;2.88;;;;;;;;;;5058939;28;20131;-58
2023/06/14 06:59:16;;;;;;;3.30;2.50;;;21.80;94.10;;;;;;5063587;28;20036;-57
2023/06/14 07:01:42;;;;;;;3.65;2.40;;;21.90;92.40;;;;;;5064468;28;20136;-57
2023/06/14 07:04:07;;;;;;;4.80;2.40;;;22.00;90.70;;;;;;5064312;28;20119;-57
2023/06/14 07:06:33;;;;;;;4.22;2.45;;;21.90;91.10;;;;;;5058100;28;20049;-57
2023/06/14 07:09:01;;;;;;;4.75;2.42;;;22.10;91.60;;;;;;5059433;28;20024;-57
2023/06/14 07:11:27;;;;;;;5.72;2.30;;;22.10;90.70;;;;;;5065711;28;20031;-57
2023/06/14 07:13:52;;;;;;;5.15;2.80;;;22.20;91.10;;;;;;5058593;28;20085;-57
2023/06/14 07:16:18;;;;;;;3.78;2.17;;;21.80;90.50;;;;;;5061219;28;20033;-57
2023/06/14 07:18:44;;;;;;;4.28;2.22;;;21.80;89.20;;;;;;5060111;27;20036;-57
2023/06/14 07:21:09;;;;;;;4.50;2.20;;;21.70;89.50;;;;;;5062922;28;20056;-58
2023/06/14 07:23:35;;;;;;;7.07;2.35;;;21.80;90.30;;;;;;5063859;28;20041;-57
2023/06/14 07:26:01;;;;;;;5.55;2.50;;;21.80;88.90;;;;;;5062517;28;20043;-57
2023/06/14 07:28:26;;;;;;;4.57;1.73;;;22.00;88.40;;;;;;5060820;28;20048;-57
2023/06/14 07:30:52;;;;;;;2.40;1.75;;;21.80;90.20;;;;;;5057647;28;20047;-57
2023/06/14 07:33:17;;;;;;;5.47;2.00;;;22.00;87.50;;;;;;5059025;28;20386;-57
2023/06/14 07:35:43;;;;;;;6.78;1.63;;;21.90;86.70;;;;;;5061242;28;20926;-57
2023/06/14 07:38:08;;;;;;;3.60;1.75;;;21.80;83.20;;;;;;5061270;28;20521;-57
2023/06/14 07:40:34;;;;;;;2.88;1.50;;;21.60;83.90;;;;;;5059357;28;20109;-57
2023/06/14 07:43:01;;;;;;;5.95;1.70;;;21.60;82.90;;;;;;5059849;28;20124;-57
2023/06/14 07:45:26;;;;;;;3.08;1.65;;;21.80;83.70;;;;;;5053050;28;20040;-57
2023/06/14 07:47:52;;;;;;;6.88;1.98;;;21.70;82.30;;;;;;5059434;28;20064;-58
2023/06/14 07:50:18;;;;;;;2.78;1.65;;;21.90;83.00;;;;;;5059860;28;20067;-57
2023/06/14 07:52:45;;;;;;;6.75;1.80;;;22.00;81.80;;;;;;5066843;28;20507;-58
2023/06/14 07:55:11;;;;;;;3.75;1.95;;;22.20;82.20;;;;;;5057094;28;20583;-57
2023/06/14 07:57:36;;;;;;;4.55;2.10;;;22.40;81.30;;;;;;5061640;28;20055;-58
2023/06/14 08:00:06;;;;;;;3.50;1.50;;;22.60;79.60;;;;;;5052160;28;20025;-57
2023/06/14 08:02:31;;;;;;;4.72;2.10;;;22.60;77.10;;;;;;5061172;28;20040;-57
2023/06/14 08:04:57;;;;;;;3.38;1.67;;;22.50;74.60;;;;;;5056668;28;20083;-58
2023/06/14 08:07:22;;;;;;;3.40;1.67;;;22.40;76.20;;;;;;5061088;28;20036;-58
2023/06/14 08:09:48;;;;;;;8.73;2.20;;;22.80;74.80;;;;;;5064351;28;20122;-57
2023/06/14 08:12:13;;;;;;;4.00;1.90;;;22.90;73.80;;;;;;5059960;28;20037;-58
2023/06/14 08:14:39;;;;;;;2.88;2.00;;;23.00;73.40;;;;;;5063818;28;20131;-57
2023/06/14 08:17:05;;;;;;;4.13;1.60;;;22.80;72.20;;;;;;5062066;28;20045;-57
2023/06/14 08:19:31;;;;;;;9.00;1.80;;;22.70;70.40;;;;;;5066107;28;20085;-58
2023/06/14 08:21:57;;;;;;;8.88;1.75;;;22.90;70.50;;;;;;5055881;28;20514;-57
2023/06/14 08:24:26;;;;;;;3.45;1.70;;;22.90;70.30;;;;;;5057792;28;20039;-57
2023/06/14 08:26:53;;;;;;;4.65;2.03;;;22.90;71.80;;;;;;5053731;28;20044;-57
2023/06/14 08:29:19;;;;;;;5.85;2.00;;;22.70;68.50;;;;;;5052587;28;20087;-57
2023/06/14 08:31:45;;;;;;;4.05;2.00;;;22.40;67.70;;;;;;5059026;28;20033;-57
2023/06/14 08:34:11;;;;;;;7.32;3.50;;;22.30;69.50;;;;;;5060717;28;20044;-57
2023/06/14 08:36:37;;;;;;;5.18;2.00;;;22.60;73.90;;;;;;5056069;28;20126;-57
2023/06/14 08:39:03;;;;;;;4.63;1.90;;;22.40;73.90;;;;;;5057968;28;20114;-57
2023/06/14 08:41:29;;;;;;;3.95;2.05;;;22.70;74.80;;;;;;5059628;28;20036;-57
2023/06/14 08:43:56;;;;;;;8.52;1.75;;;23.00;70.70;;;;;;5061617;28;20040;-57
2023/06/14 08:46:23;;;;;;;4.55;2.05;;;23.00;72.10;;;;;;5055210;28;21008;-57
2023/06/14 08:48:52;;;;;;;5.88;2.10;;;23.10;71.90;;;;;;5061566;28;20024;-57
2023/06/14 08:51:23;;;;;;;4.50;1.85;;;23.60;72.00;;;;;;5061056;28;20559;-58
2023/06/14 08:53:58;;;;;;;4.53;1.85;;;22.80;71.80;;;;;;5064035;28;20119;-57
2023/06/14 08:56:28;;;;;;;4.22;2.10;;;22.90;69.30;;;;;;5057709;28;20037;-57
2023/06/14 08:58:56;;;;;;;5.47;2.38;;;22.80;71.30;;;;;;5054350;28;20698;-57
2023/06/14 09:01:23;;;;;;;6.45;2.97;;;22.80;73.90;;;;;;5072900;28;20044;-57
2023/06/14 09:03:49;;;;;;;9.80;2.40;;;22.90;74.30;;;;;;5063845;28;20048;-58
2023/06/14 09:06:15;;;;;;;11.00;2.65;;;23.10;71.80;;;;;;5067858;28;20029;-57
2023/06/14 09:08:46;;;;;;;14.07;2.95;;;23.20;74.30;;;;;;5063687;28;20063;-58
2023/06/14 09:11:15;;;;;;;9.77;2.00;;;23.50;75.30;;;;;;5061508;28;20045;-57
2023/06/14 09:13:41;;;;;;;5.45;1.52;;;23.30;71.10;;;;;;5062687;28;20123;-57
2023/06/14 09:16:08;;;;;;;3.88;1.90;;;22.40;70.80;;;;;;5063453;28;20028;-57
2023/06/14 09:18:43;;;;;;;5.50;1.90;;;22.30;72.10;;;;;;5060639;28;20061;-57
2023/06/14 09:21:09;;;;;;;4.60;2.00;;;22.40;71.20;;;;;;5056050;28;20074;-57
2023/06/14 09:23:45;;;;;;;4.32;2.10;;;22.20;74.60;;;;;;5064411;28;20532;-57
2023/06/14 09:26:16;;;;;;;6.32;2.22;;;22.60;74.60;;;;;;5057937;28;20040;-58
2023/06/14 09:28:43;;;;;;;5.85;2.30;;;22.70;74.20;;;;;;5057793;28;20024;-58
2023/06/14 09:31:11;;;;;;;3.70;2.10;;;22.90;74.10;;;;;;5059878;28;20099;-57
2023/06/14 09:33:37;;;;;;;3.20;1.77;;;23.10;73.60;;;;;;5063606;28;20490;-57
2023/06/14 09:36:04;;;;;;;4.95;2.10;;;23.30;72.80;;;;;;5060983;28;20060;-57
2023/06/14 09:38:29;;;;;;;3.75;2.38;;;23.00;72.20;;;;;;5070203;28;20081;-58
2023/06/14 09:40:58;;;;;;;4.68;2.00;;;22.80;72.90;;;;;;5068301;28;20109;-57
2023/06/14 09:43:26;;;;;;;3.28;2.10;;;22.70;75.20;;;;;;5070694;28;20577;-57
2023/06/14 09:45:52;;;;;;;6.57;2.47;;;23.10;73.60;;;;;;5061703;28;20080;-58
2023/06/14 09:48:19;;;;;;;7.30;2.30;;;23.50;72.40;;;;;;5059444;28;20086;-57
2023/06/14 09:50:46;;;;;;;6.10;2.30;;;23.30;74.70;;;;;;5067639;28;20035;-57
2023/06/14 09:53:13;;;;;;;6.43;1.90;;;23.30;72.80;;;;;;5067612;28;20515;-57
2023/06/14 09:55:41;;;;;;;3.55;2.00;;;23.50;72.40;;;;;;5062581;28;20093;-57
2023/06/14 09:58:08;;;;;;;8.70;2.05;;;23.50;73.10;;;;;;5062855;28;20040;-58
2023/06/14 10:00:34;;;;;;;7.70;2.63;;;23.30;71.20;;;;;;5062304;28;20040;-57
2023/06/14 10:03:16;;;;;;;5.57;1.77;;;23.20;70.00;;;;;;5065282;28;20044;-57
2023/06/14 10:05:45;;;;;;;7.35;2.13;;;22.90;70.60;;;;;;5061692;28;20068;-57
2023/06/14 10:08:25;;;;;;;4.10;1.90;;;23.20;69.50;;;;;;5068122;28;20396;-57
2023/06/14 10:10:51;;;;;;;8.35;2.42;;;23.40;68.10;;;;;;5066092;28;20132;-58
2023/06/14 10:13:18;;;;;;;5.13;1.73;;;23.40;69.80;;;;;;5064954;28;20083;-57
2023/06/14 10:16:03;;;;;;;5.38;1.60;;;23.50;69.00;;;;;;5062070;28;20492;-57
2023/06/14 10:18:52;;;;;;;3.65;1.60;;;23.00;65.20;;;;;;5063984;28;20736;-57
2023/06/14 10:21:40;;;;;;;4.20;1.60;;;23.00;66.20;;;;;;5059221;28;20037;-57
2023/06/14 10:24:08;;;;;;;4.25;1.40;;;22.70;67.20;;;;;;5055734;28;20507;-57
2023/06/14 10:26:33;;;;;;;5.05;1.58;;;23.10;65.60;;;;;;5057433;28;20606;-57
2023/06/14 10:29:08;;;;;;;4.72;1.63;;;23.20;66.40;;;;;;5063950;28;20028;-57
2023/06/14 10:31:45;;;;;;;2.13;1.40;;;23.00;66.50;;;;;;5063474;28;20033;-57
2023/06/14 10:34:12;;;;;;;2.75;1.60;;;23.10;66.10;;;;;;5061706;28;20043;-67
2023/06/14 10:36:42;;;;;;;4.22;1.60;;;22.90;66.70;;;;;;5060949;28;20519;-57
2023/06/14 10:39:14;;;;;;;3.22;1.40;;;23.20;67.40;;;;;;5059512;27;20037;-57
2023/06/14 10:41:41;;;;;;;5.00;1.87;;;23.00;64.40;;;;;;5061265;28;20039;-57
2023/06/14 10:44:13;;;;;;;3.25;1.40;;;22.80;64.40;;;;;;5060899;28;20078;-57
2023/06/14 10:46:49;;;;;;;6.57;1.73;;;22.60;73.70;;;;;;5062323;28;20524;-58
2023/06/14 10:49:18;;;;;;;7.40;1.60;;;22.90;74.60;;;;;;5062989;28;20716;-57
2023/06/14 10:51:49;;;;;;;2.92;1.20;;;22.80;75.80;;;;;;5062202;28;20041;-58
2023/06/14 10:54:20;;;;;;;6.75;1.85;;;23.10;68.40;;;;;;5062782;28;20496;-57
2023/06/14 10:56:50;;;;;;;5.30;1.70;;;23.30;66.30;;;;;;5060175;28;20078;-57
2023/06/14 10:59:17;;;;;;;3.17;1.45;;;23.20;65.80;;;;;;5058859;28;20047;-56
2023/06/14 11:01:46;;;;;;;5.45;1.73;;;23.20;65.70;;;;;;5058730;28;20040;-57
2023/06/14 11:04:12;;;;;;;4.25;1.38;;;23.20;67.50;;;;;;5059194;28;20111;-56
2023/06/14 11:06:49;;;;;;;5.97;1.30;;;23.10;66.80;;;;;;5060637;28;20456;-56
2023/06/14 11:09:36;;;;;;;2.83;1.30;;;23.30;66.60;;;;;;5059561;28;20043;-57
2023/06/14 11:12:02;;;;;;;2.75;1.30;;;23.50;62.00;;;;;;5058311;28;20103;-58
2023/06/14 11:14:30;;;;;;;2.13;1.40;;;23.70;63.40;;;;;;5062384;28;20086;-57
2023/06/14 11:16:56;;;;;;;1.60;1.27;;;23.50;63.00;;;;;;5063848;28;20066;-57
2023/06/14 11:19:22;;;;;;;1.35;1.10;;;23.50;61.00;;;;;;5063160;28;20057;-58
2023/06/14 11:21:48;;;;;;;2.78;1.10;;;23.00;62.00;;;;;;5062502;28;20036;-57
2023/06/14 11:24:14;;;;;;;2.85;1.00;;;23.10;62.60;;;;;;5062384;28;20126;-57
2023/06/14 11:26:40;;;;;;;4.10;1.20;;;22.80;60.70;;;;;;5060652;28;20028;-57
2023/06/14 11:29:06;;;;;;;3.45;1.15;;;23.10;62.20;;;;;;5056617;28;20117;-57
2023/06/14 11:31:32;;;;;;;3.20;1.20;;;23.40;63.10;;;;;;5062817;28;20523;-57
2023/06/14 11:33:58;;;;;;;5.00;1.50;;;22.80;61.90;;;;;;5056902;28;20416;-57
2023/06/14 11:36:35;;;;;;;3.90;1.25;;;22.90;62.10;;;;;;5058039;28;20405;-57
2023/06/14 11:39:08;;;;;;;4.45;1.23;;;22.90;62.00;;;;;;5062653;28;20033;-57
2023/06/14 11:41:39;;;;;;;2.15;1.30;;;22.70;63.20;;;;;;5057338;28;20039;-57
2023/06/14 11:44:05;;;;;;;2.30;1.10;;;22.90;63.80;;;;;;5060992;28;20097;-57
2023/06/14 11:46:31;;;;;;;4.82;1.15;;;23.00;63.50;;;;;;5058415;28;20049;-57
2023/06/14 11:48:57;;;;;;;6.70;1.30;;;23.00;63.70;;;;;;5064109;28;20052;-57
2023/06/14 11:51:23;;;;;;;5.72;1.63;;;23.30;64.40;;;;;;5059359;28;20516;-58
2023/06/14 11:53:49;;;;;;;3.75;1.20;;;23.60;66.90;;;;;;5060171;28;20067;-57
2023/06/14 11:56:15;;;;;;;5.15;1.40;;;23.60;64.10;;;;;;5059238;28;20400;-57
2023/06/14 11:58:43;;;;;;;7.13;1.38;;;23.60;64.90;;;;;;5061533;28;20727;-58
2023/06/14 12:01:09;;;;;;;1.90;1.20;;;23.70;64.70;;;;;;5060621;28;20105;-57
2023/06/14 12:03:35;;;;;;;3.33;1.38;;;23.90;65.30;;;;;;5060336;28;20724;-57
2023/06/14 12:06:05;;;;;;;6.07;1.30;;;23.40;61.90;;;;;;5061781;28;20037;-57
2023/06/14 12:08:41;;;;;;;4.80;1.65;;;23.40;64.30;;;;;;5059890;28;20029;-58
2023/06/14 12:11:10;;;;;;;5.60;1.55;;;23.30;64.70;;;;;;5058705;28;20036;-57
2023/06/14 12:13:40;;;;;;;5.80;1.38;;;23.40;65.70;;;;;;5061514;28;20093;-57
2023/06/14 12:16:10;;;;;;;3.05;1.30;;;23.50;65.80;;;;;;5062186;28;20492;-57
2023/06/14 12:18:37;;;;;;;2.97;1.10;;;;;;;;;;5059492;28;20064;-58
2023/06/14 12:21:06;;;;;;;6.15;1.67;;;23.80;62.60;;;;;;5059703;28;20058;-58
2023/06/14 12:23:48;;;;;;;4.60;1.42;;;23.80;65.70;;;;;;5060619;28;20037;-58
2023/06/14 12:26:18;;;;;;;2.10;1.20;;;23.40;64.30;;;;;;5060152;28;20036;-58
2023/06/14 12:28:48;;;;;;;2.72;1.20;;;23.30;65.90;;;;;;5063470;28;20040;-57
2023/06/14 12:31:15;;;;;;;7.30;1.58;;;23.20;64.30;;;;;;5059186;28;21688;-58
2023/06/14 12:33:42;;;;;;;4.85;1.50;;;23.30;66.00;;;;;;5060903;28;20040;-57
2023/06/14 12:36:09;;;;;;;4.47;1.30;;;23.50;65.10;;;;;;5058133;28;20037;-58
2023/06/14 12:38:36;;;;;;;3.60;1.55;;;23.60;64.70;;;;;;5061195;28;20063;-57
2023/06/14 12:41:02;;;;;;;3.40;1.50;;;23.70;66.50;;;;;;5059955;28;20089;-58
2023/06/14 12:43:27;;;;;;;5.63;1.65;;;23.80;66.30;;;;;;5059542;28;20111;-57
2023/06/14 12:45:53;;;;;;;2.83;1.20;;;23.50;66.10;;;;;;5059765;28;20067;-58